sensor_id;sensor_type;location;lat;lon;timestamp;P1;durP1;ratioP1;P2;durP2;ratioP2
52962;SDS011;38827;53.024;6.596;2024-02-23T00:00:56;2.22;;;0.63;;
52962;SDS011;38827;53.024;6.596;2024-02-23T00:03:21;3.08;;;0.70;;
52962;SDS011;38827;53.024;6.596;2024-02-23T00:05:48;5.22;;;0.80;;
52962;SDS011;38827;53.024;6.596;2024-02-23T00:08:14;4.35;;;0.80;;
52962;SDS011;38827;53.024;6.596;2024-02-23T00:10:39;4.68;;;0.75;;
52962;SDS011;38827;53.024;6.596;2024-02-23T00:13:06;6.35;;;0.70;;
52962;SDS011;38827;53.024;6.596;2024-02-23T00:15:31;5.90;;;1.52;;
52962;SDS011;38827;53.024;6.596;2024-02-23T00:17:57;4.20;;;0.70;;
52962;SDS011;38827;53.024;6.596;2024-02-23T00:20:23;5.65;;;0.95;;
52962;SDS011;38827;53.024;6.596;2024-02-23T00:22:48;6.35;;;1.15;;
52962;SDS011;38827;53.024;6.596;2024-02-23T00:25:14;12.02;;;1.17;;
52962;SDS011;38827;53.024;6.596;2024-02-23T00:27:39;5.57;;;1.10;;
52962;SDS011;38827;53.024;6.596;2024-02-23T00:32:32;2.03;;;0.73;;
52962;SDS011;38827;53.024;6.596;2024-02-23T00:34:58;3.35;;;0.90;;
52962;SDS011;38827;53.024;6.596;2024-02-23T00:37:23;1.50;;;0.60;;
52962;SDS011;38827;53.024;6.596;2024-02-23T00:39:49;2.30;;;0.60;;
52962;SDS011;38827;53.024;6.596;2024-02-23T00:42:16;2.55;;;0.80;;
52962;SDS011;38827;53.024;6.596;2024-02-23T00:44:42;3.58;;;0.80;;
52962;SDS011;38827;53.024;6.596;2024-02-23T00:47:07;3.08;;;0.70;;
52962;SDS011;38827;53.024;6.596;2024-02-23T00:49:33;4.25;;;0.70;;
52962;SDS011;38827;53.024;6.596;2024-02-23T00:51:59;5.05;;;1.15;;
52962;SDS011;38827;53.024;6.596;2024-02-23T00:54:24;4.65;;;1.00;;
52962;SDS011;38827;53.024;6.596;2024-02-23T00:56:50;4.55;;;1.05;;
52962;SDS011;38827;53.024;6.596;2024-02-23T00:59:16;2.53;;;0.82;;
52962;SDS011;38827;53.024;6.596;2024-02-23T01:01:42;6.82;;;1.10;;
52962;SDS011;38827;53.024;6.596;2024-02-23T01:04:07;2.95;;;0.70;;
52962;SDS011;38827;53.024;6.596;2024-02-23T01:06:33;1.80;;;0.60;;
52962;SDS011;38827;53.024;6.596;2024-02-23T01:08:59;2.28;;;0.60;;
52962;SDS011;38827;53.024;6.596;2024-02-23T01:11:24;0.50;;;0.35;;
52962;SDS011;38827;53.024;6.596;2024-02-23T01:13:50;2.10;;;0.70;;
52962;SDS011;38827;53.024;6.596;2024-02-23T01:16:15;0.68;;;0.40;;
52962;SDS011;38827;53.024;6.596;2024-02-23T01:18:42;0.68;;;0.40;;
52962;SDS011;38827;53.024;6.596;2024-02-23T01:21:08;1.00;;;0.63;;
52962;SDS011;38827;53.024;6.596;2024-02-23T01:23:33;1.88;;;0.60;;
52962;SDS011;38827;53.024;6.596;2024-02-23T01:25:59;2.50;;;0.70;;
52962;SDS011;38827;53.024;6.596;2024-02-23T01:28:25;3.55;;;0.70;;
52962;SDS011;38827;53.024;6.596;2024-02-23T01:30:51;4.10;;;0.90;;
52962;SDS011;38827;53.024;6.596;2024-02-23T01:33:16;3.35;;;0.90;;
52962;SDS011;38827;53.024;6.596;2024-02-23T01:35:42;2.25;;;0.75;;
52962;SDS011;38827;53.024;6.596;2024-02-23T01:38:07;5.60;;;1.20;;
52962;SDS011;38827;53.024;6.596;2024-02-23T01:40:33;4.55;;;1.15;;
52962;SDS011;38827;53.024;6.596;2024-02-23T01:43:05;6.72;;;1.15;;
52962;SDS011;38827;53.024;6.596;2024-02-23T01:45:31;3.65;;;1.20;;
52962;SDS011;38827;53.024;6.596;2024-02-23T01:50:24;5.93;;;1.17;;
52962;SDS011;38827;53.024;6.596;2024-02-23T01:55:18;8.73;;;1.42;;
52962;SDS011;38827;53.024;6.596;2024-02-23T01:57:47;5.35;;;1.40;;
52962;SDS011;38827;53.024;6.596;2024-02-23T02:00:15;6.70;;;1.30;;
52962;SDS011;38827;53.024;6.596;2024-02-23T02:02:43;6.68;;;1.40;;
52962;SDS011;38827;53.024;6.596;2024-02-23T02:05:09;11.93;;;1.63;;
52962;SDS011;38827;53.024;6.596;2024-02-23T02:07:35;12.57;;;2.13;;
52962;SDS011;38827;53.024;6.596;2024-02-23T02:10:01;7.38;;;1.70;;
52962;SDS011;38827;53.024;6.596;2024-02-23T02:12:29;8.75;;;1.77;;
52962;SDS011;38827;53.024;6.596;2024-02-23T02:14:54;9.30;;;1.73;;
52962;SDS011;38827;53.024;6.596;2024-02-23T02:17:24;6.95;;;2.15;;
52962;SDS011;38827;53.024;6.596;2024-02-23T02:19:49;9.10;;;2.10;;
52962;SDS011;38827;53.024;6.596;2024-02-23T02:22:15;12.90;;;2.15;;
52962;SDS011;38827;53.024;6.596;2024-02-23T02:24:41;9.45;;;2.00;;
52962;SDS011;38827;53.024;6.596;2024-02-23T02:27:08;11.48;;;1.90;;
52962;SDS011;38827;53.024;6.596;2024-02-23T02:29:35;12.73;;;1.85;;
52962;SDS011;38827;53.024;6.596;2024-02-23T02:32:00;13.10;;;2.38;;
52962;SDS011;38827;53.024;6.596;2024-02-23T02:34:27;13.55;;;2.05;;
52962;SDS011;38827;53.024;6.596;2024-02-23T02:36:54;8.45;;;2.15;;
52962;SDS011;38827;53.024;6.596;2024-02-23T02:39:20;12.00;;;2.33;;
52962;SDS011;38827;53.024;6.596;2024-02-23T02:41:47;13.63;;;2.33;;
52962;SDS011;38827;53.024;6.596;2024-02-23T02:44:13;15.10;;;2.80;;
52962;SDS011;38827;53.024;6.596;2024-02-23T02:46:40;14.50;;;2.80;;
52962;SDS011;38827;53.024;6.596;2024-02-23T02:49:07;17.33;;;2.30;;
52962;SDS011;38827;53.024;6.596;2024-02-23T02:51:33;12.48;;;2.15;;
52962;SDS011;38827;53.024;6.596;2024-02-23T02:53:58;18.38;;;2.58;;
52962;SDS011;38827;53.024;6.596;2024-02-23T02:56:24;9.80;;;2.67;;
52962;SDS011;38827;53.024;6.596;2024-02-23T02:58:50;10.70;;;1.80;;
52962;SDS011;38827;53.024;6.596;2024-02-23T03:01:15;10.75;;;1.60;;
52962;SDS011;38827;53.024;6.596;2024-02-23T03:03:41;10.40;;;2.05;;
52962;SDS011;38827;53.024;6.596;2024-02-23T03:06:07;8.70;;;2.10;;
52962;SDS011;38827;53.024;6.596;2024-02-23T03:08:33;10.60;;;1.92;;
52962;SDS011;38827;53.024;6.596;2024-02-23T03:10:59;8.55;;;2.10;;
52962;SDS011;38827;53.024;6.596;2024-02-23T03:13:25;11.38;;;1.83;;
52962;SDS011;38827;53.024;6.596;2024-02-23T03:15:50;10.75;;;1.92;;
52962;SDS011;38827;53.024;6.596;2024-02-23T03:18:16;12.38;;;2.50;;
52962;SDS011;38827;53.024;6.596;2024-02-23T03:20:42;9.25;;;1.80;;
52962;SDS011;38827;53.024;6.596;2024-02-23T03:23:07;11.73;;;2.28;;
52962;SDS011;38827;53.024;6.596;2024-02-23T03:25:33;11.35;;;1.77;;
52962;SDS011;38827;53.024;6.596;2024-02-23T03:27:58;10.98;;;2.00;;
52962;SDS011;38827;53.024;6.596;2024-02-23T03:30:24;14.82;;;2.45;;
52962;SDS011;38827;53.024;6.596;2024-02-23T03:32:50;9.75;;;1.90;;
52962;SDS011;38827;53.024;6.596;2024-02-23T03:35:15;9.25;;;2.53;;
52962;SDS011;38827;53.024;6.596;2024-02-23T03:37:41;11.35;;;1.70;;
52962;SDS011;38827;53.024;6.596;2024-02-23T03:40:07;11.07;;;2.85;;
52962;SDS011;38827;53.024;6.596;2024-02-23T03:42:35;10.88;;;1.73;;
52962;SDS011;38827;53.024;6.596;2024-02-23T03:45:00;13.70;;;1.88;;
52962;SDS011;38827;53.024;6.596;2024-02-23T03:47:26;15.63;;;2.05;;
52962;SDS011;38827;53.024;6.596;2024-02-23T03:49:52;9.73;;;1.80;;
52962;SDS011;38827;53.024;6.596;2024-02-23T03:52:17;11.90;;;2.17;;
52962;SDS011;38827;53.024;6.596;2024-02-23T03:54:43;9.07;;;2.03;;
52962;SDS011;38827;53.024;6.596;2024-02-23T03:57:08;8.32;;;2.17;;
52962;SDS011;38827;53.024;6.596;2024-02-23T03:59:35;11.60;;;2.03;;
52962;SDS011;38827;53.024;6.596;2024-02-23T04:02:02;9.15;;;1.70;;
52962;SDS011;38827;53.024;6.596;2024-02-23T04:04:28;13.27;;;1.67;;
52962;SDS011;38827;53.024;6.596;2024-02-23T04:06:53;8.18;;;1.77;;
52962;SDS011;38827;53.024;6.596;2024-02-23T04:09:19;12.52;;;1.77;;
52962;SDS011;38827;53.024;6.596;2024-02-23T04:11:47;8.63;;;2.22;;
52962;SDS011;38827;53.024;6.596;2024-02-23T04:14:13;11.13;;;2.10;;
52962;SDS011;38827;53.024;6.596;2024-02-23T04:16:39;9.63;;;1.90;;
52962;SDS011;38827;53.024;6.596;2024-02-23T04:19:04;8.43;;;1.33;;
52962;SDS011;38827;53.024;6.596;2024-02-23T04:21:30;12.98;;;2.65;;
52962;SDS011;38827;53.024;6.596;2024-02-23T04:23:56;9.40;;;1.45;;
52962;SDS011;38827;53.024;6.596;2024-02-23T04:26:21;12.70;;;2.40;;
52962;SDS011;38827;53.024;6.596;2024-02-23T04:28:58;10.90;;;1.77;;
52962;SDS011;38827;53.024;6.596;2024-02-23T04:31:23;11.87;;;1.77;;
52962;SDS011;38827;53.024;6.596;2024-02-23T04:33:49;12.30;;;1.80;;
52962;SDS011;38827;53.024;6.596;2024-02-23T04:36:14;9.93;;;2.08;;
52962;SDS011;38827;53.024;6.596;2024-02-23T04:38:45;10.32;;;2.10;;
52962;SDS011;38827;53.024;6.596;2024-02-23T04:41:11;10.30;;;1.73;;
52962;SDS011;38827;53.024;6.596;2024-02-23T04:43:37;7.97;;;1.60;;
52962;SDS011;38827;53.024;6.596;2024-02-23T04:46:02;13.20;;;1.92;;
52962;SDS011;38827;53.024;6.596;2024-02-23T04:48:28;6.43;;;1.42;;
52962;SDS011;38827;53.024;6.596;2024-02-23T04:50:57;8.57;;;1.80;;
52962;SDS011;38827;53.024;6.596;2024-02-23T04:53:23;8.77;;;1.40;;
52962;SDS011;38827;53.024;6.596;2024-02-23T04:55:48;10.45;;;1.52;;
52962;SDS011;38827;53.024;6.596;2024-02-23T04:58:14;8.10;;;1.70;;
52962;SDS011;38827;53.024;6.596;2024-02-23T05:00:40;9.88;;;1.42;;
52962;SDS011;38827;53.024;6.596;2024-02-23T05:03:06;8.98;;;1.83;;
52962;SDS011;38827;53.024;6.596;2024-02-23T05:05:31;15.05;;;2.22;;
52962;SDS011;38827;53.024;6.596;2024-02-23T05:07:57;13.63;;;1.98;;
52962;SDS011;38827;53.024;6.596;2024-02-23T05:10:23;10.43;;;2.23;;
52962;SDS011;38827;53.024;6.596;2024-02-23T05:12:49;10.15;;;2.25;;
52962;SDS011;38827;53.024;6.596;2024-02-23T05:15:15;13.80;;;2.20;;
52962;SDS011;38827;53.024;6.596;2024-02-23T05:17:41;9.30;;;2.53;;
52962;SDS011;38827;53.024;6.596;2024-02-23T05:20:10;12.27;;;2.35;;
52962;SDS011;38827;53.024;6.596;2024-02-23T05:22:37;11.47;;;2.83;;
52962;SDS011;38827;53.024;6.596;2024-02-23T05:25:04;12.02;;;2.90;;
52962;SDS011;38827;53.024;6.596;2024-02-23T05:27:30;13.65;;;4.18;;
52962;SDS011;38827;53.024;6.596;2024-02-23T05:30:15;15.65;;;3.70;;
52962;SDS011;38827;53.024;6.596;2024-02-23T05:32:40;9.43;;;3.63;;
52962;SDS011;38827;53.024;6.596;2024-02-23T05:35:06;10.43;;;4.22;;
52962;SDS011;38827;53.024;6.596;2024-02-23T05:37:32;9.32;;;4.28;;
52962;SDS011;38827;53.024;6.596;2024-02-23T05:39:57;13.95;;;5.30;;
52962;SDS011;38827;53.024;6.596;2024-02-23T05:42:29;9.82;;;4.90;;
52962;SDS011;38827;53.024;6.596;2024-02-23T05:44:54;15.27;;;5.40;;
52962;SDS011;38827;53.024;6.596;2024-02-23T05:47:20;15.25;;;5.93;;
52962;SDS011;38827;53.024;6.596;2024-02-23T05:49:46;14.70;;;6.17;;
52962;SDS011;38827;53.024;6.596;2024-02-23T05:52:12;15.65;;;6.53;;
52962;SDS011;38827;53.024;6.596;2024-02-23T05:54:38;12.65;;;6.68;;
52962;SDS011;38827;53.024;6.596;2024-02-23T05:57:03;11.88;;;6.55;;
52962;SDS011;38827;53.024;6.596;2024-02-23T05:59:29;12.93;;;6.77;;
52962;SDS011;38827;53.024;6.596;2024-02-23T06:01:55;14.90;;;7.07;;
52962;SDS011;38827;53.024;6.596;2024-02-23T06:04:25;16.38;;;7.43;;
52962;SDS011;38827;53.024;6.596;2024-02-23T06:06:50;14.23;;;6.80;;
52962;SDS011;38827;53.024;6.596;2024-02-23T06:09:16;12.45;;;6.45;;
52962;SDS011;38827;53.024;6.596;2024-02-23T06:11:42;14.05;;;6.20;;
52962;SDS011;38827;53.024;6.596;2024-02-23T06:14:08;13.63;;;6.93;;
52962;SDS011;38827;53.024;6.596;2024-02-23T06:16:33;13.52;;;6.00;;
52962;SDS011;38827;53.024;6.596;2024-02-23T06:18:59;17.38;;;6.53;;
52962;SDS011;38827;53.024;6.596;2024-02-23T06:21:25;14.65;;;5.93;;
52962;SDS011;38827;53.024;6.596;2024-02-23T06:23:51;10.82;;;6.07;;
52962;SDS011;38827;53.024;6.596;2024-02-23T06:26:17;12.67;;;6.63;;
52962;SDS011;38827;53.024;6.596;2024-02-23T06:28:43;15.82;;;5.95;;
52962;SDS011;38827;53.024;6.596;2024-02-23T06:31:09;19.15;;;6.60;;
52962;SDS011;38827;53.024;6.596;2024-02-23T06:33:35;11.95;;;5.80;;
52962;SDS011;38827;53.024;6.596;2024-02-23T06:36:01;15.68;;;6.03;;
52962;SDS011;38827;53.024;6.596;2024-02-23T06:38:28;12.25;;;6.47;;
52962;SDS011;38827;53.024;6.596;2024-02-23T06:40:53;16.55;;;6.65;;
52962;SDS011;38827;53.024;6.596;2024-02-23T06:43:21;14.63;;;6.32;;
52962;SDS011;38827;53.024;6.596;2024-02-23T06:45:47;12.48;;;6.75;;
52962;SDS011;38827;53.024;6.596;2024-02-23T06:48:13;10.52;;;5.43;;
52962;SDS011;38827;53.024;6.596;2024-02-23T06:51:00;16.00;;;6.47;;
52962;SDS011;38827;53.024;6.596;2024-02-23T06:53:26;14.52;;;6.07;;
52962;SDS011;38827;53.024;6.596;2024-02-23T06:55:52;14.13;;;5.90;;
52962;SDS011;38827;53.024;6.596;2024-02-23T06:58:21;13.75;;;6.25;;
52962;SDS011;38827;53.024;6.596;2024-02-23T07:00:46;12.10;;;6.28;;
52962;SDS011;38827;53.024;6.596;2024-02-23T07:03:12;14.10;;;6.65;;
52962;SDS011;38827;53.024;6.596;2024-02-23T07:05:39;11.30;;;6.05;;
52962;SDS011;38827;53.024;6.596;2024-02-23T07:08:07;17.65;;;6.65;;
52962;SDS011;38827;53.024;6.596;2024-02-23T07:10:33;14.93;;;6.15;;
52962;SDS011;38827;53.024;6.596;2024-02-23T07:12:59;13.40;;;6.03;;
52962;SDS011;38827;53.024;6.596;2024-02-23T07:15:24;20.50;;;6.63;;
52962;SDS011;38827;53.024;6.596;2024-02-23T07:17:51;17.88;;;6.75;;
52962;SDS011;38827;53.024;6.596;2024-02-23T07:20:17;14.82;;;6.38;;
52962;SDS011;38827;53.024;6.596;2024-02-23T07:22:46;12.65;;;5.75;;
52962;SDS011;38827;53.024;6.596;2024-02-23T07:25:12;12.45;;;5.53;;
52962;SDS011;38827;53.024;6.596;2024-02-23T07:27:41;13.50;;;5.35;;
52962;SDS011;38827;53.024;6.596;2024-02-23T07:30:07;12.07;;;5.15;;
52962;SDS011;38827;53.024;6.596;2024-02-23T07:32:33;12.55;;;4.50;;
52962;SDS011;38827;53.024;6.596;2024-02-23T07:34:59;8.60;;;4.40;;
52962;SDS011;38827;53.024;6.596;2024-02-23T07:37:26;9.70;;;4.00;;
52962;SDS011;38827;53.024;6.596;2024-02-23T07:39:58;10.85;;;4.80;;
52962;SDS011;38827;53.024;6.596;2024-02-23T07:42:28;11.40;;;4.32;;
52962;SDS011;38827;53.024;6.596;2024-02-23T07:44:53;16.30;;;4.90;;
52962;SDS011;38827;53.024;6.596;2024-02-23T07:47:19;13.20;;;5.43;;
52962;SDS011;38827;53.024;6.596;2024-02-23T07:49:45;11.68;;;4.32;;
52962;SDS011;38827;53.024;6.596;2024-02-23T07:52:23;9.57;;;4.30;;
52962;SDS011;38827;53.024;6.596;2024-02-23T07:54:49;11.68;;;4.35;;
52962;SDS011;38827;53.024;6.596;2024-02-23T07:57:17;7.43;;;4.13;;
52962;SDS011;38827;53.024;6.596;2024-02-23T07:59:52;5.93;;;3.30;;
52962;SDS011;38827;53.024;6.596;2024-02-23T08:02:33;6.43;;;3.40;;
52962;SDS011;38827;53.024;6.596;2024-02-23T08:05:14;5.50;;;3.08;;
52962;SDS011;38827;53.024;6.596;2024-02-23T08:07:40;5.82;;;2.63;;
52962;SDS011;38827;53.024;6.596;2024-02-23T08:10:25;8.95;;;2.47;;
52962;SDS011;38827;53.024;6.596;2024-02-23T08:12:51;5.63;;;2.42;;
52962;SDS011;38827;53.024;6.596;2024-02-23T08:15:28;10.93;;;2.45;;
52962;SDS011;38827;53.024;6.596;2024-02-23T08:18:03;7.22;;;2.17;;
52962;SDS011;38827;53.024;6.596;2024-02-23T08:23:33;6.97;;;2.95;;
52962;SDS011;38827;53.024;6.596;2024-02-23T08:26:05;7.60;;;2.00;;
52962;SDS011;38827;53.024;6.596;2024-02-23T08:28:47;5.63;;;1.98;;
52962;SDS011;38827;53.024;6.596;2024-02-23T08:34:45;4.88;;;2.00;;
52962;SDS011;38827;53.024;6.596;2024-02-23T08:43:58;7.82;;;2.33;;
52962;SDS011;38827;53.024;6.596;2024-02-23T08:49:22;6.82;;;2.17;;
52962;SDS011;38827;53.024;6.596;2024-02-23T08:52:03;7.72;;;2.15;;
52962;SDS011;38827;53.024;6.596;2024-02-23T08:57:50;7.45;;;2.13;;
52962;SDS011;38827;53.024;6.596;2024-02-23T09:00:31;6.88;;;1.92;;
52962;SDS011;38827;53.024;6.596;2024-02-23T09:02:57;5.43;;;1.70;;
52962;SDS011;38827;53.024;6.596;2024-02-23T09:05:23;6.70;;;1.92;;
52962;SDS011;38827;53.024;6.596;2024-02-23T09:07:48;6.18;;;1.60;;
52962;SDS011;38827;53.024;6.596;2024-02-23T09:10:14;8.15;;;1.70;;
52962;SDS011;38827;53.024;6.596;2024-02-23T09:12:40;6.30;;;2.72;;
52962;SDS011;38827;53.024;6.596;2024-02-23T09:15:05;6.13;;;1.55;;
52962;SDS011;38827;53.024;6.596;2024-02-23T09:17:31;4.20;;;1.50;;
52962;SDS011;38827;53.024;6.596;2024-02-23T09:19:57;13.45;;;2.67;;
52962;SDS011;38827;53.024;6.596;2024-02-23T09:22:23;8.82;;;1.92;;
52962;SDS011;38827;53.024;6.596;2024-02-23T09:24:49;5.28;;;1.48;;
52962;SDS011;38827;53.024;6.596;2024-02-23T09:27:14;5.60;;;1.50;;
52962;SDS011;38827;53.024;6.596;2024-02-23T09:29:40;6.32;;;1.75;;
52962;SDS011;38827;53.024;6.596;2024-02-23T09:32:07;6.10;;;1.42;;
52962;SDS011;38827;53.024;6.596;2024-02-23T09:34:33;6.30;;;1.50;;
52962;SDS011;38827;53.024;6.596;2024-02-23T09:39:42;4.93;;;1.42;;
52962;SDS011;38827;53.024;6.596;2024-02-23T09:42:23;6.75;;;1.42;;
52962;SDS011;38827;53.024;6.596;2024-02-23T09:44:58;7.78;;;1.90;;
52962;SDS011;38827;53.024;6.596;2024-02-23T09:47:27;7.47;;;1.80;;
52962;SDS011;38827;53.024;6.596;2024-02-23T09:50:06;6.20;;;1.85;;
52962;SDS011;38827;53.024;6.596;2024-02-23T09:57:51;5.20;;;1.48;;
52962;SDS011;38827;53.024;6.596;2024-02-23T10:03:20;4.18;;;1.20;;
52962;SDS011;38827;53.024;6.596;2024-02-23T10:06:19;7.40;;;1.57;;
52962;SDS011;38827;53.024;6.596;2024-02-23T10:08:45;5.95;;;1.27;;
52962;SDS011;38827;53.024;6.596;2024-02-23T10:11:35;6.68;;;1.48;;
52962;SDS011;38827;53.024;6.596;2024-02-23T10:17:07;5.10;;;1.65;;
52962;SDS011;38827;53.024;6.596;2024-02-23T10:19:33;5.82;;;1.25;;
52962;SDS011;38827;53.024;6.596;2024-02-23T10:21:59;4.20;;;1.33;;
52962;SDS011;38827;53.024;6.596;2024-02-23T10:24:25;4.88;;;1.10;;
52962;SDS011;38827;53.024;6.596;2024-02-23T10:26:51;4.38;;;1.20;;
52962;SDS011;38827;53.024;6.596;2024-02-23T10:29:17;5.70;;;1.25;;
52962;SDS011;38827;53.024;6.596;2024-02-23T10:31:43;7.38;;;1.25;;
52962;SDS011;38827;53.024;6.596;2024-02-23T10:34:14;5.55;;;1.42;;
52962;SDS011;38827;53.024;6.596;2024-02-23T10:36:42;6.53;;;1.50;;
52962;SDS011;38827;53.024;6.596;2024-02-23T10:39:10;6.65;;;1.92;;
52962;SDS011;38827;53.024;6.596;2024-02-23T10:41:57;6.87;;;1.60;;
52962;SDS011;38827;53.024;6.596;2024-02-23T10:45:03;6.75;;;1.50;;
52962;SDS011;38827;53.024;6.596;2024-02-23T10:47:48;5.97;;;1.52;;
52962;SDS011;38827;53.024;6.596;2024-02-23T10:50:33;6.50;;;1.20;;
52962;SDS011;38827;53.024;6.596;2024-02-23T10:53:09;3.92;;;1.13;;
52962;SDS011;38827;53.024;6.596;2024-02-23T10:58:02;5.22;;;1.33;;
52962;SDS011;38827;53.024;6.596;2024-02-23T11:00:32;7.07;;;1.30;;
52962;SDS011;38827;53.024;6.596;2024-02-23T11:02:58;5.70;;;1.20;;
52962;SDS011;38827;53.024;6.596;2024-02-23T11:05:25;5.90;;;1.20;;
52962;SDS011;38827;53.024;6.596;2024-02-23T11:07:51;6.47;;;1.38;;
52962;SDS011;38827;53.024;6.596;2024-02-23T11:10:23;6.97;;;1.17;;
52962;SDS011;38827;53.024;6.596;2024-02-23T11:12:59;8.52;;;1.58;;
52962;SDS011;38827;53.024;6.596;2024-02-23T11:15:29;6.20;;;1.45;;
52962;SDS011;38827;53.024;6.596;2024-02-23T11:17:58;8.70;;;1.40;;
52962;SDS011;38827;53.024;6.596;2024-02-23T11:20:33;9.20;;;1.40;;
52962;SDS011;38827;53.024;6.596;2024-02-23T11:23:00;6.60;;;1.40;;
52962;SDS011;38827;53.024;6.596;2024-02-23T11:25:29;4.53;;;1.35;;
52962;SDS011;38827;53.024;6.596;2024-02-23T11:27:54;6.97;;;2.00;;
52962;SDS011;38827;53.024;6.596;2024-02-23T11:30:20;7.93;;;1.48;;
52962;SDS011;38827;53.024;6.596;2024-02-23T11:32:46;6.13;;;1.20;;
52962;SDS011;38827;53.024;6.596;2024-02-23T11:35:16;5.60;;;1.17;;
52962;SDS011;38827;53.024;6.596;2024-02-23T11:37:52;8.15;;;1.55;;
52962;SDS011;38827;53.024;6.596;2024-02-23T11:40:28;5.25;;;1.80;;
52962;SDS011;38827;53.024;6.596;2024-02-23T11:42:55;4.72;;;1.50;;
52962;SDS011;38827;53.024;6.596;2024-02-23T11:45:21;10.75;;;1.70;;
52962;SDS011;38827;53.024;6.596;2024-02-23T11:47:47;4.28;;;1.20;;
52962;SDS011;38827;53.024;6.596;2024-02-23T11:50:13;4.88;;;1.20;;
52962;SDS011;38827;53.024;6.596;2024-02-23T11:52:44;6.75;;;1.50;;
52962;SDS011;38827;53.024;6.596;2024-02-23T11:55:10;6.93;;;1.27;;
52962;SDS011;38827;53.024;6.596;2024-02-23T11:57:36;6.53;;;1.45;;
52962;SDS011;38827;53.024;6.596;2024-02-23T12:02:31;5.15;;;1.00;;
52962;SDS011;38827;53.024;6.596;2024-02-23T12:05:00;4.60;;;1.30;;
52962;SDS011;38827;53.024;6.596;2024-02-23T12:07:26;6.97;;;1.30;;
52962;SDS011;38827;53.024;6.596;2024-02-23T12:09:54;5.82;;;1.52;;
52962;SDS011;38827;53.024;6.596;2024-02-23T12:12:20;6.00;;;1.60;;
52962;SDS011;38827;53.024;6.596;2024-02-23T12:14:46;4.35;;;1.30;;
52962;SDS011;38827;53.024;6.596;2024-02-23T12:17:12;4.00;;;1.23;;
52962;SDS011;38827;53.024;6.596;2024-02-23T12:19:39;5.43;;;1.30;;
52962;SDS011;38827;53.024;6.596;2024-02-23T12:22:06;6.03;;;1.40;;
52962;SDS011;38827;53.024;6.596;2024-02-23T12:24:47;4.10;;;1.57;;
52962;SDS011;38827;53.024;6.596;2024-02-23T12:27:25;4.20;;;1.20;;
52962;SDS011;38827;53.024;6.596;2024-02-23T12:32:50;6.15;;;1.60;;
52962;SDS011;38827;53.024;6.596;2024-02-23T12:35:22;7.13;;;1.38;;
52962;SDS011;38827;53.024;6.596;2024-02-23T12:38:00;5.57;;;1.48;;
52962;SDS011;38827;53.024;6.596;2024-02-23T12:40:25;4.75;;;1.20;;
52962;SDS011;38827;53.024;6.596;2024-02-23T12:45:47;3.83;;;1.40;;
52962;SDS011;38827;53.024;6.596;2024-02-23T12:48:25;7.00;;;1.73;;
52962;SDS011;38827;53.024;6.596;2024-02-23T12:51:06;4.13;;;1.42;;
52962;SDS011;38827;53.024;6.596;2024-02-23T12:53:44;3.88;;;1.33;;
52962;SDS011;38827;53.024;6.596;2024-02-23T12:56:25;7.30;;;1.40;;
52962;SDS011;38827;53.024;6.596;2024-02-23T12:59:00;5.18;;;1.27;;
52962;SDS011;38827;53.024;6.596;2024-02-23T13:01:38;7.10;;;1.30;;
52962;SDS011;38827;53.024;6.596;2024-02-23T13:04:10;5.07;;;1.20;;
52962;SDS011;38827;53.024;6.596;2024-02-23T13:09:46;6.85;;;1.80;;
52962;SDS011;38827;53.024;6.596;2024-02-23T13:12:27;4.38;;;1.50;;
52962;SDS011;38827;53.024;6.596;2024-02-23T13:15:11;4.60;;;1.58;;
52962;SDS011;38827;53.024;6.596;2024-02-23T13:17:51;7.03;;;1.80;;
52962;SDS011;38827;53.024;6.596;2024-02-23T13:20:17;6.30;;;1.40;;
52962;SDS011;38827;53.024;6.596;2024-02-23T13:22:43;5.57;;;1.83;;
52962;SDS011;38827;53.024;6.596;2024-02-23T13:25:08;4.10;;;1.25;;
52962;SDS011;38827;53.024;6.596;2024-02-23T13:27:37;7.00;;;1.45;;
52962;SDS011;38827;53.024;6.596;2024-02-23T13:30:03;5.65;;;1.50;;
52962;SDS011;38827;53.024;6.596;2024-02-23T13:32:29;5.13;;;1.60;;
52962;SDS011;38827;53.024;6.596;2024-02-23T13:34:54;3.40;;;1.38;;
52962;SDS011;38827;53.024;6.596;2024-02-23T13:37:20;6.43;;;1.80;;
52962;SDS011;38827;53.024;6.596;2024-02-23T13:39:46;3.28;;;1.48;;
52962;SDS011;38827;53.024;6.596;2024-02-23T13:42:11;3.63;;;1.23;;
52962;SDS011;38827;53.024;6.596;2024-02-23T13:44:37;4.90;;;1.50;;
52962;SDS011;38827;53.024;6.596;2024-02-23T13:47:05;6.20;;;1.50;;
52962;SDS011;38827;53.024;6.596;2024-02-23T13:49:32;5.05;;;1.60;;
52962;SDS011;38827;53.024;6.596;2024-02-23T13:51:57;5.07;;;1.42;;
52962;SDS011;38827;53.024;6.596;2024-02-23T13:54:23;5.30;;;1.60;;
52962;SDS011;38827;53.024;6.596;2024-02-23T13:56:49;5.20;;;2.03;;
52962;SDS011;38827;53.024;6.596;2024-02-23T13:59:15;5.40;;;2.08;;
52962;SDS011;38827;53.024;6.596;2024-02-23T14:01:42;14.15;;;4.10;;
52962;SDS011;38827;53.024;6.596;2024-02-23T14:04:10;4.05;;;2.00;;
52962;SDS011;38827;53.024;6.596;2024-02-23T14:06:35;7.47;;;2.30;;
52962;SDS011;38827;53.024;6.596;2024-02-23T14:14:39;6.97;;;1.58;;
52962;SDS011;38827;53.024;6.596;2024-02-23T14:20:29;3.10;;;1.27;;
52962;SDS011;38827;53.024;6.596;2024-02-23T14:23:01;5.82;;;1.40;;
52962;SDS011;38827;53.024;6.596;2024-02-23T14:25:45;5.53;;;1.55;;
52962;SDS011;38827;53.024;6.596;2024-02-23T14:28:50;6.07;;;1.70;;
52962;SDS011;38827;53.024;6.596;2024-02-23T14:31:33;4.32;;;1.77;;
52962;SDS011;38827;53.024;6.596;2024-02-23T14:37:36;9.70;;;2.20;;
52962;SDS011;38827;53.024;6.596;2024-02-23T14:40:11;3.92;;;1.70;;
52962;SDS011;38827;53.024;6.596;2024-02-23T14:42:37;4.30;;;1.70;;
52962;SDS011;38827;53.024;6.596;2024-02-23T14:45:21;6.03;;;1.83;;
52962;SDS011;38827;53.024;6.596;2024-02-23T14:47:55;4.65;;;1.40;;
52962;SDS011;38827;53.024;6.596;2024-02-23T14:50:33;4.57;;;1.55;;
52962;SDS011;38827;53.024;6.596;2024-02-23T14:55:56;3.67;;;1.30;;
52962;SDS011;38827;53.024;6.596;2024-02-23T15:04:07;3.53;;;1.50;;
52962;SDS011;38827;53.024;6.596;2024-02-23T15:06:43;7.97;;;1.67;;
52962;SDS011;38827;53.024;6.596;2024-02-23T15:15:09;6.57;;;1.90;;
52962;SDS011;38827;53.024;6.596;2024-02-23T15:17:50;4.30;;;1.70;;
52962;SDS011;38827;53.024;6.596;2024-02-23T15:20:17;9.20;;;2.67;;
52962;SDS011;38827;53.024;6.596;2024-02-23T15:22:51;5.13;;;1.70;;
52962;SDS011;38827;53.024;6.596;2024-02-23T15:25:19;5.63;;;1.52;;
52962;SDS011;38827;53.024;6.596;2024-02-23T15:30:14;5.40;;;1.67;;
52962;SDS011;38827;53.024;6.596;2024-02-23T15:32:40;7.38;;;1.75;;
52962;SDS011;38827;53.024;6.596;2024-02-23T15:35:41;6.45;;;1.40;;
52962;SDS011;38827;53.024;6.596;2024-02-23T15:38:07;4.43;;;1.40;;
52962;SDS011;38827;53.024;6.596;2024-02-23T15:41:03;6.10;;;1.77;;
52962;SDS011;38827;53.024;6.596;2024-02-23T15:43:38;3.28;;;1.25;;
52962;SDS011;38827;53.024;6.596;2024-02-23T15:46:22;7.05;;;2.40;;
52962;SDS011;38827;53.024;6.596;2024-02-23T15:48:51;5.57;;;1.95;;
52962;SDS011;38827;53.024;6.596;2024-02-23T15:51:29;5.85;;;1.67;;
52962;SDS011;38827;53.024;6.596;2024-02-23T15:53:58;4.65;;;1.40;;
52962;SDS011;38827;53.024;6.596;2024-02-23T15:56:25;4.05;;;1.45;;
52962;SDS011;38827;53.024;6.596;2024-02-23T15:58:50;6.55;;;1.70;;
52962;SDS011;38827;53.024;6.596;2024-02-23T16:01:17;5.15;;;1.88;;
52962;SDS011;38827;53.024;6.596;2024-02-23T16:03:52;7.43;;;1.77;;
52962;SDS011;38827;53.024;6.596;2024-02-23T16:06:21;3.88;;;1.50;;
52962;SDS011;38827;53.024;6.596;2024-02-23T16:08:46;3.20;;;1.52;;
52962;SDS011;38827;53.024;6.596;2024-02-23T16:11:13;4.50;;;1.50;;
52962;SDS011;38827;53.024;6.596;2024-02-23T16:13:41;4.07;;;1.30;;
52962;SDS011;38827;53.024;6.596;2024-02-23T16:16:08;5.57;;;1.40;;